createdAt,value
2022-11-25T00:01:23.002Z,4.26
2022-11-25T00:03:58.433Z,4.31
2022-11-25T00:06:29.180Z,4.31
2022-11-25T00:09:01.225Z,4.39
2022-11-25T00:11:28.093Z,4.32
2022-11-25T00:13:56.088Z,4.55
2022-11-25T00:16:24.696Z,4.37
2022-11-25T00:18:54.092Z,4.21
2022-11-25T00:21:23.577Z,4.20
2022-11-25T00:24:14.209Z,4.39
2022-11-25T00:26:40.853Z,4.09
2022-11-25T00:29:08.393Z,4.03
2022-11-25T00:31:37.335Z,4.04
2022-11-25T00:34:04.978Z,4.10
2022-11-25T00:36:34.675Z,4.41
2022-11-25T00:39:05.267Z,4.12
2022-11-25T00:41:50.852Z,4.41
2022-11-25T00:44:38.763Z,4.38
2022-11-25T00:47:06.086Z,4.24
2022-11-25T00:49:33.051Z,4.75
2022-11-25T00:52:03.747Z,4.55
2022-11-25T00:54:30.624Z,4.56
2022-11-25T00:56:58.243Z,4.51
2022-11-25T00:59:25.158Z,4.52
2022-11-25T01:01:52.230Z,4.46
2022-11-25T01:04:18.910Z,4.52
2022-11-25T01:06:45.430Z,4.54
2022-11-25T01:09:15.094Z,4.55
2022-11-25T01:11:41.998Z,4.60
2022-11-25T01:14:09.202Z,3.95
2022-11-25T01:16:37.791Z,4.29
2022-11-25T01:19:08.608Z,4.44
2022-11-25T01:21:35.620Z,4.70
2022-11-25T01:24:06.663Z,5.01
2022-11-25T01:26:35.687Z,5.08
2022-11-25T01:29:05.752Z,5.23
2022-11-25T01:31:36.308Z,5.69
2022-11-25T01:34:06.997Z,5.51
2022-11-25T01:36:35.314Z,5.66
2022-11-25T01:39:03.338Z,5.37
2022-11-25T01:41:32.754Z,5.32
2022-11-25T01:44:08.286Z,4.83
2022-11-25T01:46:58.406Z,4.47
2022-11-25T01:49:37.321Z,4.48
2022-11-25T01:52:24.906Z,4.48
2022-11-25T01:54:57.465Z,4.55
2022-11-25T01:57:48.582Z,4.54
2022-11-25T02:00:16.087Z,4.34
2022-11-25T02:02:49.608Z,4.54
2022-11-25T02:05:21.001Z,4.84
2022-11-25T02:07:53.465Z,4.37
2022-11-25T02:10:25.823Z,4.50
2022-11-25T02:12:53.347Z,4.75
2022-11-25T02:15:21.505Z,4.71
2022-11-25T02:17:49.171Z,4.64
2022-11-25T02:20:19.535Z,4.53
2022-11-25T02:23:15.102Z,4.50
2022-11-25T02:25:45.507Z,4.76
2022-11-25T02:28:18.061Z,4.58
2022-11-25T02:30:45.800Z,4.57
2022-11-25T02:33:14.028Z,4.50
2022-11-25T02:35:49.273Z,4.08
2022-11-25T02:38:40.185Z,4.15
2022-11-25T02:41:15.797Z,3.92
2022-11-25T02:43:45.729Z,4.35
2022-11-25T02:46:22.136Z,4.80
2022-11-25T02:51:41.881Z,4.99
2022-11-25T02:54:10.038Z,4.78
2022-11-25T02:56:37.383Z,4.74
2022-11-25T02:59:04.848Z,4.52
2022-11-25T03:01:32.109Z,4.46
2022-11-25T03:04:00.008Z,4.52
2022-11-25T03:06:28.153Z,4.26
2022-11-25T03:08:55.183Z,4.24
2022-11-25T03:11:42.137Z,3.95
2022-11-25T03:14:09.417Z,3.98
2022-11-25T03:16:36.021Z,4.04
2022-11-25T03:19:04.204Z,3.65
2022-11-25T03:21:31.183Z,3.78
2022-11-25T03:23:58.136Z,4.02
2022-11-25T03:26:26.144Z,4.26
2022-11-25T03:28:53.143Z,4.27
2022-11-25T03:31:19.934Z,4.19
2022-11-25T03:33:47.064Z,4.03
2022-11-25T03:36:14.062Z,4.09
2022-11-25T03:38:40.833Z,4.13
2022-11-25T03:41:07.553Z,4.27
2022-11-25T03:43:35.558Z,4.22
2022-11-25T03:46:02.844Z,4.30
2022-11-25T03:48:30.879Z,4.27
2022-11-25T03:50:57.737Z,4.24
2022-11-25T03:53:25.981Z,4.37
2022-11-25T03:55:52.891Z,4.30
2022-11-25T03:58:22.433Z,4.14
2022-11-25T04:00:50.794Z,3.96
2022-11-25T04:03:17.513Z,3.90
2022-11-25T04:05:44.486Z,3.87
2022-11-25T04:08:12.220Z,3.88
2022-11-25T04:10:39.511Z,3.76
2022-11-25T04:13:06.888Z,3.84
2022-11-25T04:15:37.823Z,3.92
2022-11-25T04:18:05.674Z,3.83
2022-11-25T04:20:33.450Z,3.73
2022-11-25T04:23:06.308Z,3.85
2022-11-25T04:25:36.417Z,3.60
2022-11-25T04:28:13.042Z,3.82
2022-11-25T04:30:41.202Z,3.48
2022-11-25T04:33:08.123Z,3.49
2022-11-25T04:35:35.527Z,3.20
2022-11-25T04:38:02.874Z,3.38
2022-11-25T04:40:30.762Z,3.60
2022-11-25T04:43:11.191Z,3.60
2022-11-25T04:46:06.787Z,3.54
2022-11-25T04:48:29.758Z,3.91
2022-11-25T04:50:56.703Z,3.66
2022-11-25T04:53:24.224Z,3.66
2022-11-25T04:55:50.920Z,3.53
2022-11-25T04:58:39.170Z,3.86
2022-11-25T05:01:06.413Z,3.89
2022-11-25T05:03:33.734Z,3.67
2022-11-25T05:06:06.263Z,3.59
2022-11-25T05:08:33.343Z,3.55
2022-11-25T05:11:00.739Z,3.81
2022-11-25T05:13:27.318Z,3.54
2022-11-25T05:15:54.315Z,3.75
2022-11-25T05:18:23.026Z,4.01
2022-11-25T05:20:49.819Z,3.96
2022-11-25T05:23:20.471Z,3.65
2022-11-25T05:25:48.730Z,3.55
2022-11-25T05:28:27.889Z,3.57
2022-11-25T05:30:55.058Z,3.48
2022-11-25T05:33:21.982Z,3.62
2022-11-25T05:36:00.245Z,3.63
2022-11-25T05:38:32.335Z,3.70
2022-11-25T05:41:16.175Z,3.96
2022-11-25T05:43:48.195Z,3.87
2022-11-25T05:46:15.507Z,4.02
2022-11-25T05:48:54.372Z,4.02
2022-11-25T05:51:22.333Z,3.98
2022-11-25T05:53:50.296Z,3.86
2022-11-25T05:56:18.520Z,3.83
2022-11-25T05:59:20.657Z,3.84
2022-11-25T06:02:07.183Z,3.24
2022-11-25T06:04:37.213Z,3.32
2022-11-25T06:07:04.237Z,3.35
2022-11-25T06:09:31.073Z,3.20
2022-11-25T06:11:59.437Z,3.12
2022-11-25T06:14:26.431Z,2.84
2022-11-25T06:16:53.498Z,2.54
2022-11-25T06:19:30.274Z,2.61
2022-11-25T06:21:57.788Z,2.10
2022-11-25T06:24:27.367Z,1.68
2022-11-25T06:27:00.686Z,1.71
2022-11-25T06:29:27.609Z,1.68
2022-11-25T06:31:55.083Z,1.63
2022-11-25T06:34:48.853Z,1.63
2022-11-25T06:37:28.187Z,1.64
2022-11-25T06:39:54.979Z,1.87
2022-11-25T06:42:21.592Z,1.73
2022-11-25T06:44:48.196Z,2.06
2022-11-25T06:47:14.831Z,1.72
2022-11-25T06:49:46.101Z,1.49
2022-11-25T06:52:12.842Z,1.42
2022-11-25T06:54:41.323Z,1.48
2022-11-25T06:57:09.297Z,1.76
2022-11-25T06:59:36.524Z,1.80
2022-11-25T07:02:03.876Z,2.11
2022-11-25T07:04:31.045Z,2.38
2022-11-25T07:06:57.726Z,2.57
2022-11-25T07:09:24.994Z,2.73
2022-11-25T07:11:51.765Z,2.83
2022-11-25T07:14:18.943Z,2.68
2022-11-25T07:16:46.617Z,2.04
2022-11-25T07:19:16.207Z,1.94
2022-11-25T07:21:45.570Z,1.77
2022-11-25T07:24:15.122Z,1.77
2022-11-25T07:26:43.690Z,1.44
2022-11-25T07:29:49.924Z,1.35
2022-11-25T07:32:07.131Z,1.72
2022-11-25T07:34:36.960Z,1.87
2022-11-25T07:37:06.193Z,1.94
2022-11-25T07:39:32.925Z,1.87
2022-11-25T07:41:59.733Z,2.07
2022-11-25T07:44:26.411Z,1.73
2022-11-25T07:47:01.147Z,2.00
2022-11-25T07:49:27.795Z,1.78
2022-11-25T07:51:59.849Z,1.72
2022-11-25T07:54:27.004Z,1.59
2022-11-25T07:56:53.859Z,1.99
2022-11-25T07:59:22.756Z,1.87
2022-11-25T08:01:51.587Z,2.26
2022-11-25T08:04:20.724Z,1.94
2022-11-25T08:06:49.877Z,1.79
2022-11-25T08:09:20.347Z,1.74
2022-11-25T08:11:48.062Z,1.60
2022-11-25T08:14:15.649Z,1.78
2022-11-25T08:16:42.919Z,1.53
2022-11-25T08:19:13.945Z,1.57
2022-11-25T08:21:41.070Z,1.53
2022-11-25T08:24:07.822Z,1.24
2022-11-25T08:26:36.589Z,1.35
2022-11-25T08:29:06.199Z,1.62
2022-11-25T08:31:39.329Z,2.02
2022-11-25T08:34:07.299Z,2.08
2022-11-25T08:36:36.492Z,2.27
2022-11-25T08:39:29.082Z,2.18
2022-11-25T08:41:54.139Z,2.38
2022-11-25T08:44:20.899Z,2.56
2022-11-25T08:46:47.549Z,2.68
2022-11-25T08:49:17.174Z,2.48
2022-11-25T08:51:44.099Z,2.87
2022-11-25T08:54:10.767Z,2.47
2022-11-25T08:56:37.382Z,2.89
2022-11-25T08:59:04.442Z,3.04
2022-11-25T09:01:31.333Z,3.00
2022-11-25T09:03:58.429Z,2.65
2022-11-25T09:06:26.778Z,2.76
2022-11-25T09:08:58.915Z,3.04
2022-11-25T09:11:26.055Z,3.37
2022-11-25T09:13:53.203Z,3.25
2022-11-25T09:16:21.081Z,3.24
2022-11-25T09:18:52.539Z,3.24
2022-11-25T09:21:24.900Z,3.80
2022-11-25T09:23:54.026Z,3.21
2022-11-25T09:26:26.199Z,3.60
2022-11-25T09:28:53.910Z,3.08
2022-11-25T09:31:21.715Z,3.28
2022-11-25T09:33:48.608Z,3.55
2022-11-25T09:36:18.266Z,3.51
2022-11-25T09:38:45.472Z,3.81
2022-11-25T09:42:16.654Z,3.63
2022-11-25T09:45:18.047Z,3.81
2022-11-25T09:48:26.588Z,3.30
2022-11-25T09:51:18.085Z,3.41
2022-11-25T09:53:50.355Z,3.20
2022-11-25T09:56:27.224Z,3.53
2022-11-25T09:59:00.428Z,3.47
2022-11-25T10:01:30.663Z,3.32
2022-11-25T10:04:14.308Z,3.26
2022-11-25T10:06:54.910Z,3.08
2022-11-25T10:09:26.072Z,2.67
2022-11-25T10:11:57.042Z,2.44
2022-11-25T10:14:26.533Z,3.02
2022-11-25T10:17:17.505Z,2.75
2022-11-25T10:19:50.019Z,3.13
2022-11-25T10:22:32.556Z,2.80
2022-11-25T10:25:02.885Z,2.40
2022-11-25T10:27:44.026Z,2.66
2022-11-25T10:30:26.407Z,3.18
2022-11-25T10:33:12.895Z,2.35
2022-11-25T10:35:45.573Z,2.69
2022-11-25T10:38:19.250Z,2.65
2022-11-25T10:40:50.123Z,2.81
2022-11-25T10:43:16.955Z,2.82
2022-11-25T10:46:06.729Z,3.07
2022-11-25T10:49:19.830Z,3.02
2022-11-25T10:51:49.515Z,3.05
2022-11-25T10:54:26.777Z,3.40
2022-11-25T10:57:15.976Z,3.36
2022-11-25T10:59:56.791Z,3.05
2022-11-25T11:02:30.932Z,2.97
2022-11-25T11:05:16.679Z,3.40
2022-11-25T11:07:46.239Z,3.74
2022-11-25T11:10:23.324Z,3.24
2022-11-25T11:12:54.683Z,3.64
2022-11-25T11:15:23.311Z,3.44
2022-11-25T11:17:50.532Z,3.52
2022-11-25T11:20:25.024Z,2.93
2022-11-25T11:22:55.402Z,3.40
2022-11-25T11:25:23.337Z,3.85
2022-11-25T11:27:50.020Z,3.74
2022-11-25T11:30:24.440Z,4.14
2022-11-25T11:33:30.040Z,4.31
2022-11-25T11:36:21.467Z,4.06
2022-11-25T11:38:56.715Z,3.53
2022-11-25T11:41:39.888Z,4.29
2022-11-25T11:44:17.602Z,4.38
2022-11-25T11:47:19.169Z,4.33
2022-11-25T11:50:16.907Z,4.82
2022-11-25T11:52:54.172Z,4.53
2022-11-25T11:55:30.146Z,4.83
2022-11-25T11:58:02.819Z,4.99
2022-11-25T12:00:34.888Z,4.97
2022-11-25T12:03:19.356Z,4.81
2022-11-25T12:05:53.997Z,4.93
2022-11-25T12:08:29.880Z,5.16
2022-11-25T12:11:01.482Z,4.82
2022-11-25T12:13:56.593Z,5.24
2022-11-25T12:16:40.364Z,5.32
2022-11-25T12:19:39.333Z,4.86
2022-11-25T12:22:06.186Z,5.10
2022-11-25T12:24:41.819Z,5.13
2022-11-25T12:27:17.797Z,5.23
2022-11-25T12:29:57.698Z,6.04
2022-11-25T12:32:44.361Z,5.77
2022-11-25T12:35:11.079Z,5.74
2022-11-25T12:37:51.518Z,5.95
2022-11-25T12:40:32.607Z,5.95
2022-11-25T12:43:18.056Z,6.05
2022-11-25T12:45:49.673Z,6.62
2022-11-25T12:48:21.300Z,6.88
2022-11-25T12:51:09.874Z,6.61
2022-11-25T12:54:04.906Z,6.49
2022-11-25T12:56:44.833Z,6.77
2022-11-25T12:59:39.662Z,6.98
2022-11-25T13:02:40.905Z,7.20
2022-11-25T13:05:38.954Z,7.42
2022-11-25T13:08:27.706Z,7.64
2022-11-25T13:11:17.645Z,7.83
2022-11-25T13:14:09.983Z,7.64
2022-11-25T13:16:37.506Z,6.82
2022-11-25T13:19:11.757Z,6.74
2022-11-25T13:22:04.467Z,6.62
2022-11-25T13:24:39.198Z,6.49
2022-11-25T13:27:26.430Z,7.07
2022-11-25T13:29:54.774Z,7.08
2022-11-25T13:32:26.315Z,6.70
2022-11-25T13:35:21.793Z,6.96
2022-11-25T13:37:53.286Z,7.14
2022-11-25T13:40:21.596Z,7.18
2022-11-25T13:42:48.884Z,7.49
2022-11-25T13:45:34.507Z,7.36
2022-11-25T13:48:29.125Z,7.75
2022-11-25T13:51:21.683Z,7.20
2022-11-25T13:53:59.445Z,6.94
2022-11-25T13:56:35.391Z,6.66
2022-11-25T13:59:11.197Z,6.72
2022-11-25T14:02:02.345Z,7.12
2022-11-25T14:04:53.768Z,6.79
2022-11-25T14:07:38.318Z,7.34
2022-11-25T14:10:08.163Z,7.69
2022-11-25T14:13:10.820Z,7.92
2022-11-25T14:15:43.764Z,7.22
2022-11-25T14:19:03.588Z,7.14
2022-11-25T14:22:02.580Z,7.34
2022-11-25T14:24:30.028Z,7.59
2022-11-25T14:26:59.116Z,7.54
2022-11-25T14:29:32.157Z,7.29
2022-11-25T14:32:08.881Z,7.12
2022-11-25T14:34:52.576Z,6.63
2022-11-25T14:37:35.055Z,6.32
2022-11-25T14:40:06.969Z,5.90
2022-11-25T14:42:39.575Z,5.76
2022-11-25T14:45:19.709Z,5.59
2022-11-25T14:47:46.366Z,6.30
2022-11-25T14:53:07.971Z,6.35
2022-11-25T14:55:35.758Z,6.15
2022-11-25T14:58:05.098Z,6.07
2022-11-25T15:00:32.590Z,5.96
2022-11-25T15:03:06.838Z,6.21
2022-11-25T15:05:35.112Z,6.32
2022-11-25T15:08:12.525Z,6.03
2022-11-25T15:10:51.614Z,6.17
2022-11-25T15:13:27.365Z,6.07
2022-11-25T15:15:55.874Z,6.00
2022-11-25T15:18:24.942Z,6.00
2022-11-25T15:20:57.997Z,5.87
2022-11-25T15:23:36.325Z,5.76
2022-11-25T15:26:05.188Z,5.69
2022-11-25T15:28:36.605Z,5.57
2022-11-25T15:31:23.836Z,5.24
2022-11-25T15:33:59.940Z,5.28
2022-11-25T15:36:27.536Z,5.62
2022-11-25T15:38:54.829Z,5.32
2022-11-25T15:41:25.992Z,5.16
2022-11-25T15:43:56.169Z,5.20
2022-11-25T15:46:25.364Z,5.16
2022-11-25T15:48:58.410Z,5.09
2022-11-25T15:51:49.556Z,5.04
2022-11-25T15:54:22.726Z,5.02
2022-11-25T15:56:53.377Z,4.99
2022-11-25T15:59:49.772Z,4.72
2022-11-25T16:02:50.284Z,4.49
2022-11-25T16:05:24.120Z,4.47
2022-11-25T16:07:51.273Z,4.42
2022-11-25T16:10:45.173Z,4.33
2022-11-25T16:13:30.182Z,4.42
2022-11-25T16:16:02.277Z,4.33
2022-11-25T16:18:57.021Z,4.35
2022-11-25T16:21:59.826Z,4.53
2022-11-25T16:24:46.487Z,4.44
2022-11-25T16:27:18.926Z,4.31
2022-11-25T16:30:16.460Z,3.61
2022-11-25T16:32:43.428Z,3.90
2022-11-25T16:35:15.442Z,3.89
2022-11-25T16:37:47.153Z,3.86
2022-11-25T16:40:17.725Z,3.64
2022-11-25T16:42:54.725Z,3.79
2022-11-25T16:45:27.477Z,4.00
2022-11-25T16:47:54.766Z,4.03
2022-11-25T16:50:22.280Z,3.91
2022-11-25T16:52:49.981Z,3.87
2022-11-25T16:55:18.658Z,3.97
2022-11-25T16:57:46.440Z,3.79
2022-11-25T17:00:16.919Z,3.67
2022-11-25T17:02:45.388Z,3.77
2022-11-25T17:05:26.517Z,3.70
2022-11-25T17:07:56.717Z,3.69
2022-11-25T17:10:23.703Z,3.64
2022-11-25T17:12:50.790Z,3.65
2022-11-25T17:15:27.963Z,3.77
2022-11-25T17:17:55.042Z,3.73
2022-11-25T17:20:24.937Z,3.69
2022-11-25T17:22:53.726Z,3.46
2022-11-25T17:25:22.278Z,3.42
2022-11-25T17:27:49.796Z,3.50
2022-11-25T17:30:23.347Z,3.55
2022-11-25T17:33:04.649Z,3.75
2022-11-25T17:35:32.015Z,3.61
2022-11-25T17:38:00.472Z,3.59
2022-11-25T17:40:27.503Z,3.55
2022-11-25T17:42:54.272Z,3.48
2022-11-25T17:45:21.495Z,3.53
2022-11-25T17:47:48.471Z,3.46
2022-11-25T17:50:24.007Z,3.46
2022-11-25T17:52:51.546Z,3.33
2022-11-25T17:55:20.231Z,3.25
2022-11-25T17:57:48.425Z,3.19
2022-11-25T18:00:18.346Z,3.16
2022-11-25T18:02:45.563Z,3.12
2022-11-25T18:05:15.608Z,3.07
2022-11-25T18:07:44.456Z,2.97
2022-11-25T18:10:13.912Z,2.79
2022-11-25T18:12:41.642Z,2.74
2022-11-25T18:15:15.933Z,2.92
2022-11-25T18:17:43.840Z,2.84
2022-11-25T18:20:24.606Z,2.85
2022-11-25T18:22:54.301Z,2.64
2022-11-25T18:25:26.083Z,2.61
2022-11-25T18:27:56.630Z,2.79
2022-11-25T18:30:28.053Z,2.74
2022-11-25T18:32:56.272Z,2.77
2022-11-25T18:35:29.793Z,2.85
2022-11-25T18:38:00.520Z,2.80
2022-11-25T18:40:29.727Z,2.83
2022-11-25T18:43:00.380Z,2.92
2022-11-25T18:45:40.441Z,3.03
2022-11-25T18:48:16.198Z,3.07
2022-11-25T18:50:45.615Z,3.04
2022-11-25T18:53:13.379Z,3.12
2022-11-25T18:55:40.608Z,3.12
2022-11-25T18:58:32.952Z,3.11
2022-11-25T19:01:04.729Z,3.24
2022-11-25T19:03:32.071Z,3.27
2022-11-25T19:06:00.807Z,3.26
2022-11-25T19:08:27.658Z,3.06
2022-11-25T19:10:56.074Z,2.51
2022-11-25T19:13:32.862Z,2.39
2022-11-25T19:16:06.736Z,2.93
2022-11-25T19:18:34.596Z,3.17
2022-11-25T19:21:03.286Z,3.16
2022-11-25T19:23:30.518Z,2.98
2022-11-25T19:26:03.254Z,2.98
2022-11-25T19:28:31.913Z,3.32
2022-11-25T19:31:03.158Z,3.40
2022-11-25T19:33:36.911Z,3.47
2022-11-25T19:36:06.509Z,3.52
2022-11-25T19:38:34.822Z,3.28
2022-11-25T19:41:01.874Z,3.52
2022-11-25T19:43:31.063Z,3.50
2022-11-25T19:45:58.334Z,3.51
2022-11-25T19:48:28.374Z,3.47
2022-11-25T19:51:04.831Z,3.20
2022-11-25T19:53:34.585Z,2.74
2022-11-25T19:56:04.681Z,3.24
2022-11-25T19:58:31.864Z,3.21
2022-11-25T20:01:02.782Z,3.31
2022-11-25T20:03:31.206Z,3.32
2022-11-25T20:05:59.020Z,3.10
2022-11-25T20:08:27.826Z,2.90
2022-11-25T20:10:56.786Z,3.32
2022-11-25T20:13:24.562Z,3.27
2022-11-25T20:15:52.195Z,3.60
2022-11-25T20:18:23.108Z,3.65
2022-11-25T20:21:02.397Z,3.48
2022-11-25T20:23:44.372Z,3.47
2022-11-25T20:26:18.148Z,3.21
2022-11-25T20:28:45.667Z,3.33
2022-11-25T20:31:14.156Z,3.17
2022-11-25T20:33:41.077Z,3.42
2022-11-25T20:36:14.687Z,3.48
2022-11-25T20:38:48.470Z,3.47
2022-11-25T20:41:16.351Z,3.28
2022-11-25T20:43:47.897Z,3.40
2022-11-25T20:46:21.626Z,3.67
2022-11-25T20:48:53.122Z,3.61
2022-11-25T20:51:22.013Z,3.07
2022-11-25T20:54:02.878Z,2.90
2022-11-25T20:56:30.312Z,3.12
2022-11-25T20:58:57.549Z,3.51
2022-11-25T21:01:25.153Z,3.44
2022-11-25T21:03:51.904Z,3.40
2022-11-25T21:06:22.533Z,3.05
2022-11-25T21:08:51.885Z,3.05
2022-11-25T21:11:19.855Z,3.43
2022-11-25T21:13:47.582Z,3.22
2022-11-25T21:16:14.572Z,3.23
2022-11-25T21:18:42.862Z,2.67
2022-11-25T21:21:32.294Z,2.87
2022-11-25T21:24:26.880Z,2.66
2022-11-25T21:26:54.899Z,2.68
2022-11-25T21:29:22.503Z,2.72
2022-11-25T21:31:49.522Z,2.70
2022-11-25T21:34:19.240Z,2.72
2022-11-25T21:36:47.711Z,2.91
2022-11-25T21:39:21.841Z,2.84
2022-11-25T21:41:48.724Z,2.65
2022-11-25T21:44:24.261Z,2.51
2022-11-25T21:46:53.751Z,2.40
2022-11-25T21:49:20.840Z,2.55
2022-11-25T21:51:47.542Z,2.56
2022-11-25T21:54:14.339Z,2.58
2022-11-25T21:56:40.969Z,2.97
2022-11-25T21:59:08.313Z,2.79
2022-11-25T22:01:35.039Z,2.90
2022-11-25T22:04:04.985Z,3.23
2022-11-25T22:06:33.808Z,3.06
2022-11-25T22:09:02.517Z,2.96
2022-11-25T22:11:36.581Z,3.16
2022-11-25T22:14:06.702Z,3.09
2022-11-25T22:16:36.401Z,3.16
2022-11-25T22:19:03.580Z,3.19
2022-11-25T22:21:30.387Z,3.11
2022-11-25T22:24:09.869Z,3.00
2022-11-25T22:26:36.600Z,3.40
2022-11-25T22:29:03.267Z,3.07
2022-11-25T22:31:37.591Z,3.19
2022-11-25T22:34:04.331Z,2.97
2022-11-25T22:36:35.498Z,2.75
2022-11-25T22:39:17.541Z,2.89
2022-11-25T22:42:06.911Z,2.93
2022-11-25T22:44:39.079Z,2.83
2022-11-25T22:47:07.457Z,3.02
2022-11-25T22:49:42.717Z,3.19
2022-11-25T22:52:26.245Z,2.83
2022-11-25T22:54:55.974Z,3.24
2022-11-25T22:57:22.736Z,3.45
2022-11-25T22:59:49.333Z,3.43
2022-11-25T23:02:21.648Z,3.28
2022-11-25T23:04:53.613Z,3.26
2022-11-25T23:07:22.142Z,3.07
2022-11-25T23:09:49.230Z,3.25
2022-11-25T23:12:17.081Z,3.21
2022-11-25T23:14:44.777Z,3.20
2022-11-25T23:17:25.633Z,2.89
2022-11-25T23:19:53.294Z,2.74
2022-11-25T23:22:20.252Z,3.01
2022-11-25T23:24:49.548Z,2.85
2022-11-25T23:27:17.698Z,3.25
2022-11-25T23:29:45.156Z,3.11
2022-11-25T23:32:18.628Z,2.92
2022-11-25T23:34:46.382Z,3.22
2022-11-25T23:37:14.691Z,3.11
2022-11-25T23:39:48.696Z,2.99
2022-11-25T23:42:17.900Z,3.18
2022-11-25T23:44:45.483Z,3.09
2022-11-25T23:47:20.252Z,3.44
2022-11-25T23:49:50.853Z,3.44
2022-11-25T23:52:24.997Z,3.34
2022-11-25T23:54:54.124Z,3.18
2022-11-25T23:57:27.918Z,3.59
2022-11-25T23:59:57.825Z,3.28
